Time;durP1;ratioP1;P1;durP2;ratioP2;P2;SDS_P1;SDS_P2;PMS_P1;PMS_P2;Temp;Humidity;BMP_temperature;BMP_pressure;BME280_temperature;BME280_humidity;BME280_pressure;Samples;Min_cycle;Max_cycle;Signal;HPM_P1;HPM_P2
2023/09/18 00:02:01;;;;;;;13.90;8.30;;;19.50;99.90;;;;;;5037855;28;20506;-74
2023/09/18 00:04:28;;;;;;;13.63;8.90;;;19.40;99.90;;;;;;5037926;28;20856;-74
2023/09/18 00:06:55;;;;;;;13.70;8.07;;;19.40;99.90;;;;;;5037796;28;20457;-74
2023/09/18 00:09:22;;;;;;;11.73;7.50;;;19.30;99.90;;;;;;5038961;28;20488;-75
2023/09/18 00:11:49;;;;;;;12.10;8.70;;;19.30;99.90;;;;;;5038565;28;20481;-74
2023/09/18 00:14:17;;;;;;;11.77;7.33;;;19.20;99.90;;;;;;5038827;28;20453;-74
2023/09/18 00:16:44;;;;;;;13.33;8.10;;;19.20;99.90;;;;;;5037636;28;20464;-74
2023/09/18 00:19:11;;;;;;;12.33;8.17;;;19.10;99.90;;;;;;5037609;28;20445;-75
2023/09/18 00:21:38;;;;;;;10.70;8.03;;;19.10;99.90;;;;;;5038007;28;20465;-74
2023/09/18 00:24:05;;;;;;;14.70;8.60;;;19.10;99.90;;;;;;5037569;28;20453;-74
2023/09/18 00:26:31;;;;;;;16.80;8.40;;;19.00;99.90;;;;;;5039045;28;20452;-74
2023/09/18 00:28:58;;;;;;;16.87;8.23;;;19.00;99.90;;;;;;5038453;28;20914;-74
2023/09/18 00:31:26;;;;;;;10.77;7.17;;;19.00;99.90;;;;;;5038542;28;20476;-74
2023/09/18 00:33:52;;;;;;;8.90;8.00;;;18.90;99.90;;;;;;5037974;28;20522;-74
2023/09/18 00:36:19;;;;;;;14.20;7.87;;;18.90;99.90;;;;;;5038396;28;20445;-74
2023/09/18 00:38:46;;;;;;;22.93;7.90;;;18.80;99.90;;;;;;5038133;28;20449;-74
2023/09/18 00:41:13;;;;;;;13.03;7.93;;;18.80;99.90;;;;;;5038198;28;20445;-74
2023/09/18 00:43:39;;;;;;;11.93;8.37;;;18.80;99.90;;;;;;5037984;28;20997;-74
2023/09/18 00:46:06;;;;;;;13.47;8.53;;;18.80;99.90;;;;;;5037632;28;20453;-74
2023/09/18 00:48:34;;;;;;;19.03;7.90;;;18.80;99.90;;;;;;5038883;28;20514;-74
2023/09/18 00:51:01;;;;;;;10.97;7.73;;;18.80;99.90;;;;;;5038120;28;20452;-74
2023/09/18 00:53:28;;;;;;;20.03;8.53;;;18.70;99.90;;;;;;5038088;28;20465;-74
2023/09/18 00:55:57;;;;;;;14.30;7.50;;;18.70;99.90;;;;;;5037375;28;20502;-74
2023/09/18 00:58:24;;;;;;;16.93;7.90;;;18.70;99.90;;;;;;5037907;28;20492;-74
2023/09/18 01:00:51;;;;;;;12.43;8.23;;;18.60;99.90;;;;;;5037399;28;20518;-74
2023/09/18 01:03:18;;;;;;;13.20;8.23;;;18.60;99.90;;;;;;5038472;28;20921;-74
2023/09/18 01:05:47;;;;;;;11.40;7.60;;;18.60;99.90;;;;;;5040922;28;20449;-74
2023/09/18 01:08:13;;;;;;;16.00;8.40;;;18.60;99.90;;;;;;5041885;28;20910;-74
2023/09/18 01:10:48;;;;;;;14.47;8.63;;;18.50;99.90;;;;;;5043575;28;20461;-74
2023/09/18 01:13:22;;;;;;;13.53;9.10;;;18.50;99.90;;;;;;5041127;28;20549;-74
2023/09/18 01:15:55;;;;;;;16.17;8.13;;;18.50;99.90;;;;;;5041012;28;20455;-74
2023/09/18 01:18:22;;;;;;;12.07;8.33;;;18.50;99.90;;;;;;5040730;28;20939;-74
2023/09/18 01:20:50;;;;;;;12.40;8.50;;;18.50;99.90;;;;;;5041403;28;20456;-74
2023/09/18 01:23:18;;;;;;;15.73;9.03;;;18.50;99.90;;;;;;5041246;28;20472;-74
2023/09/18 01:25:44;;;;;;;17.27;9.40;;;18.40;99.90;;;;;;5040847;28;20452;-74
2023/09/18 01:28:11;;;;;;;14.17;8.50;;;18.40;99.90;;;;;;5041378;28;21018;-74
2023/09/18 01:30:38;;;;;;;14.00;9.30;;;18.40;99.90;;;;;;5041038;28;20504;-74
2023/09/18 01:33:05;;;;;;;10.70;8.57;;;18.30;99.90;;;;;;5042210;28;20538;-74
2023/09/18 01:35:34;;;;;;;16.23;8.60;;;18.40;99.90;;;;;;5040950;28;20462;-74
2023/09/18 01:38:03;;;;;;;9.07;8.10;;;18.30;99.90;;;;;;5040894;28;20509;-74
2023/09/18 01:40:32;;;;;;;12.10;8.63;;;18.30;99.90;;;;;;5040994;28;20977;-74
2023/09/18 01:42:59;;;;;;;14.37;8.87;;;18.30;99.90;;;;;;5040752;28;20480;-74
2023/09/18 01:45:25;;;;;;;12.30;8.90;;;18.30;99.90;;;;;;5040429;28;20441;-74
2023/09/18 01:47:52;;;;;;;15.30;9.37;;;18.30;99.90;;;;;;5040869;28;20497;-74
2023/09/18 01:50:18;;;;;;;15.30;8.70;;;18.30;99.90;;;;;;5040477;28;20450;-74
2023/09/18 01:52:45;;;;;;;19.37;9.20;;;18.30;99.90;;;;;;5041326;28;20525;-74
2023/09/18 01:55:12;;;;;;;11.83;8.30;;;18.30;99.90;;;;;;5040039;28;20504;-74
2023/09/18 01:57:41;;;;;;;13.07;8.20;;;18.30;99.90;;;;;;5040325;28;20876;-74
2023/09/18 02:00:09;;;;;;;12.43;8.37;;;18.30;99.90;;;;;;5040335;28;20498;-74
2023/09/18 02:02:37;;;;;;;11.50;8.60;;;18.30;99.90;;;;;;5040512;28;21189;-74
2023/09/18 02:05:04;;;;;;;14.40;9.47;;;18.30;99.90;;;;;;5041408;28;20951;-74
2023/09/18 02:07:31;;;;;;;10.27;8.50;;;18.20;99.90;;;;;;5039311;28;20448;-75
2023/09/18 02:09:58;;;;;;;13.17;8.80;;;18.20;99.90;;;;;;5041958;28;20480;-74
2023/09/18 02:12:24;;;;;;;18.30;9.20;;;18.20;99.90;;;;;;5040008;28;20493;-74
2023/09/18 02:14:52;;;;;;;16.27;9.37;;;18.20;99.90;;;;;;5039748;28;20445;-74
2023/09/18 02:17:20;;;;;;;18.93;9.40;;;18.20;99.90;;;;;;5039300;28;20475;-74
2023/09/18 02:19:47;;;;;;;12.53;8.73;;;18.20;99.90;;;;;;5040752;28;20457;-74
2023/09/18 02:22:13;;;;;;;18.40;9.60;;;18.20;99.90;;;;;;5039969;28;20545;-74
2023/09/18 02:24:40;;;;;;;12.40;8.70;;;18.20;99.90;;;;;;5040829;28;20881;-74
2023/09/18 02:27:07;;;;;;;10.27;8.53;;;18.30;99.90;;;;;;5039272;28;20444;-74
2023/09/18 02:29:33;;;;;;;11.57;9.00;;;18.30;99.90;;;;;;5040107;28;20486;-75
2023/09/18 02:32:02;;;;;;;13.10;8.93;;;18.30;99.90;;;;;;5039553;28;20843;-74
2023/09/18 02:34:28;;;;;;;12.60;8.60;;;18.30;99.90;;;;;;5039762;28;20502;-74
2023/09/18 02:36:55;;;;;;;14.70;8.50;;;18.30;99.90;;;;;;5040163;28;20514;-74
2023/09/18 02:39:22;;;;;;;11.60;8.07;;;18.30;99.90;;;;;;5040205;28;20853;-74
2023/09/18 02:41:48;;;;;;;11.60;8.00;;;18.30;99.90;;;;;;5039513;28;20472;-75
2023/09/18 02:44:15;;;;;;;10.80;7.90;;;18.40;99.90;;;;;;5039606;28;20472;-74
2023/09/18 02:46:43;;;;;;;13.07;7.27;;;18.50;99.90;;;;;;5039446;28;20456;-74
2023/09/18 02:49:11;;;;;;;8.27;6.87;;;18.70;99.90;;;;;;5039020;28;20567;-74
2023/09/18 02:51:37;;;;;;;9.43;6.63;;;18.90;99.90;;;;;;5039461;28;20886;-74
2023/09/18 02:54:04;;;;;;;12.70;6.77;;;19.10;99.90;;;;;;5040019;28;20519;-74
2023/09/18 02:56:31;;;;;;;7.67;6.53;;;19.30;99.90;;;;;;5039605;28;21320;-74
2023/09/18 02:58:57;;;;;;;9.80;7.30;;;19.40;99.90;;;;;;5038857;28;20499;-74
2023/09/18 03:01:24;;;;;;;9.33;6.30;;;19.50;99.90;;;;;;5038753;28;20473;-74
2023/09/18 03:03:51;;;;;;;7.13;5.93;;;19.50;99.90;;;;;;5039058;28;20453;-74
2023/09/18 03:06:19;;;;;;;8.30;6.40;;;19.70;99.90;;;;;;5038640;28;20445;-74
2023/09/18 03:08:45;;;;;;;7.20;5.70;;;20.00;99.90;;;;;;5038699;28;20491;-75
2023/09/18 03:11:13;;;;;;;6.90;5.60;;;20.20;99.90;;;;;;5040550;28;20456;-74
2023/09/18 03:13:45;;;;;;;7.23;6.40;;;20.30;99.90;;;;;;5039143;28;20461;-74
2023/09/18 03:16:11;;;;;;;7.50;6.17;;;20.30;99.90;;;;;;5038526;28;20445;-74
2023/09/18 03:18:38;;;;;;;8.93;6.80;;;20.30;99.90;;;;;;5039005;28;20437;-75
2023/09/18 03:21:05;;;;;;;7.17;6.10;;;20.30;99.90;;;;;;5038648;28;20441;-75
2023/09/18 03:23:33;;;;;;;8.70;6.60;;;20.30;99.90;;;;;;5039710;28;20490;-75
2023/09/18 03:26:00;;;;;;;10.57;6.93;;;20.20;99.90;;;;;;5038987;28;20560;-74
2023/09/18 03:28:27;;;;;;;7.93;6.53;;;20.30;99.90;;;;;;5037893;28;20447;-75
2023/09/18 03:30:53;;;;;;;7.60;6.57;;;20.10;99.90;;;;;;5038482;28;20454;-75
2023/09/18 03:33:20;;;;;;;10.40;6.57;;;20.00;99.90;;;;;;5038377;28;20461;-75
2023/09/18 03:35:48;;;;;;;11.13;7.30;;;19.90;99.90;;;;;;5038342;28;20499;-74
2023/09/18 03:38:15;;;;;;;9.10;7.10;;;19.80;99.90;;;;;;5038465;28;20457;-75
2023/09/18 03:40:44;;;;;;;11.50;7.80;;;19.70;99.90;;;;;;5039522;28;20476;-74
2023/09/18 03:43:11;;;;;;;8.47;7.00;;;19.60;99.90;;;;;;5037769;28;20501;-75
2023/09/18 03:45:39;;;;;;;10.97;7.47;;;19.50;99.90;;;;;;5038678;28;20459;-75
2023/09/18 03:48:05;;;;;;;10.90;7.40;;;19.40;99.90;;;;;;5038304;28;20452;-75
2023/09/18 03:50:32;;;;;;;10.00;7.73;;;19.30;99.90;;;;;;5037878;28;20535;-75
2023/09/18 03:52:59;;;;;;;12.30;7.90;;;19.20;99.90;;;;;;5039032;28;20465;-74
2023/09/18 03:55:26;;;;;;;15.60;8.67;;;19.10;99.90;;;;;;5037864;28;20838;-74
2023/09/18 03:57:54;;;;;;;14.17;7.87;;;19.00;99.90;;;;;;5037449;28;20450;-74
2023/09/18 04:00:22;;;;;;;15.63;8.80;;;19.00;99.90;;;;;;5039023;28;20441;-74
2023/09/18 04:02:49;;;;;;;10.87;8.80;;;18.90;99.90;;;;;;5038550;28;20480;-75
2023/09/18 04:05:15;;;;;;;11.83;8.63;;;18.90;99.90;;;;;;5037870;28;20496;-75
2023/09/18 04:07:45;;;;;;;12.23;8.83;;;18.90;99.90;;;;;;5038262;28;20441;-75
2023/09/18 04:10:18;;;;;;;14.73;8.47;;;18.80;99.90;;;;;;5038353;28;20575;-74
2023/09/18 04:12:46;;;;;;;15.20;8.57;;;18.80;99.90;;;;;;5037654;28;20481;-74
2023/09/18 04:15:15;;;;;;;10.17;7.90;;;18.80;99.90;;;;;;5037741;28;20442;-74
2023/09/18 04:17:41;;;;;;;10.67;7.90;;;18.80;99.90;;;;;;5037801;28;20442;-74
2023/09/18 04:20:09;;;;;;;14.20;8.93;;;18.80;99.90;;;;;;5036901;28;20437;-74
2023/09/18 04:22:36;;;;;;;16.53;8.60;;;18.70;99.90;;;;;;5036053;28;20477;-75
2023/09/18 04:25:05;;;;;;;9.30;7.97;;;18.70;99.90;;;;;;5037760;28;20445;-74
2023/09/18 04:27:31;;;;;;;16.93;8.03;;;18.70;99.90;;;;;;5038195;28;20454;-74
2023/09/18 04:30:00;;;;;;;13.53;8.37;;;18.70;99.90;;;;;;5037761;28;21295;-74
2023/09/18 04:32:29;;;;;;;14.10;9.00;;;18.80;99.90;;;;;;5037614;28;20468;-75
2023/09/18 04:34:56;;;;;;;12.63;8.50;;;18.80;99.90;;;;;;5038111;28;20440;-74
2023/09/18 04:37:22;;;;;;;9.20;7.53;;;18.80;99.90;;;;;;5037129;28;20456;-74
2023/09/18 04:39:49;;;;;;;12.63;7.30;;;18.70;99.90;;;;;;5040133;28;20441;-74
2023/09/18 04:42:15;;;;;;;11.97;7.60;;;18.70;99.90;;;;;;5041576;28;20465;-75
2023/09/18 04:44:42;;;;;;;11.03;7.77;;;18.70;99.90;;;;;;5041135;28;20465;-75
2023/09/18 04:47:09;;;;;;;12.93;7.67;;;18.70;99.90;;;;;;5040940;28;20440;-74
2023/09/18 04:49:37;;;;;;;15.20;7.70;;;18.80;99.90;;;;;;5041416;28;20489;-74
2023/09/18 04:52:05;;;;;;;11.50;7.67;;;18.80;99.90;;;;;;5040087;28;20443;-74
2023/09/18 04:54:31;;;;;;;11.50;7.53;;;18.80;99.90;;;;;;5041166;28;20448;-74
2023/09/18 04:56:58;;;;;;;9.93;6.77;;;18.80;99.90;;;;;;5041438;28;20959;-75
2023/09/18 04:59:25;;;;;;;9.50;7.37;;;18.80;99.90;;;;;;5054813;28;20539;-74
2023/09/18 05:01:52;;;;;;;10.93;7.73;;;18.80;99.90;;;;;;5056205;28;20898;-74
2023/09/18 05:04:18;;;;;;;15.10;7.23;;;18.80;99.90;;;;;;5043477;28;20548;-74
2023/09/18 05:06:46;;;;;;;9.13;7.40;;;18.80;99.90;;;;;;5052108;28;20431;-74
2023/09/18 05:09:14;;;;;;;12.50;7.17;;;18.80;99.90;;;;;;5076028;28;20483;-75
2023/09/18 05:11:42;;;;;;;7.17;6.33;;;18.80;99.90;;;;;;5075899;28;20484;-75
2023/09/18 05:14:09;;;;;;;14.30;7.50;;;18.90;99.90;;;;;;5076883;28;20440;-75
2023/09/18 05:16:36;;;;;;;20.17;7.07;;;18.90;99.90;;;;;;5056414;28;20859;-74
2023/09/18 05:19:03;;;;;;;11.87;6.60;;;18.90;99.90;;;;;;5053551;28;20559;-74
2023/09/18 05:21:30;;;;;;;13.70;6.70;;;18.90;99.90;;;;;;5053318;28;20454;-74
2023/09/18 05:23:58;;;;;;;20.80;6.90;;;19.00;99.90;;;;;;5053006;28;20457;-73
2023/09/18 05:26:25;;;;;;;7.93;6.07;;;19.00;99.90;;;;;;5053412;28;20451;-73
2023/09/18 05:28:53;;;;;;;13.43;5.70;;;19.00;99.90;;;;;;5053457;28;20452;-74
2023/09/18 05:31:20;;;;;;;9.53;6.57;;;19.10;99.90;;;;;;5054238;28;20550;-73
2023/09/18 05:33:47;;;;;;;14.20;6.70;;;19.10;99.90;;;;;;5052861;28;20464;-74
2023/09/18 05:36:14;;;;;;;10.73;6.23;;;19.10;99.90;;;;;;5053321;28;20492;-73
2023/09/18 05:38:41;;;;;;;21.43;6.93;;;19.20;99.90;;;;;;5052788;28;20941;-74
2023/09/18 05:41:09;;;;;;;17.03;7.47;;;19.20;99.90;;;;;;5053235;28;20511;-74
2023/09/18 05:43:36;;;;;;;12.33;6.90;;;19.20;99.90;;;;;;5052986;28;20456;-74
2023/09/18 05:46:03;;;;;;;16.17;7.20;;;19.10;99.90;;;;;;5052719;28;20449;-75
2023/09/18 05:48:29;;;;;;;11.40;6.60;;;19.10;99.90;;;;;;5052705;28;21011;-74
2023/09/18 05:50:56;;;;;;;17.93;7.37;;;19.10;99.90;;;;;;5051274;28;20857;-74
2023/09/18 05:53:23;;;;;;;8.67;6.60;;;19.10;99.90;;;;;;5065804;28;21165;-73
2023/09/18 05:55:49;;;;;;;14.20;7.07;;;19.10;99.90;;;;;;5060860;28;20456;-74
2023/09/18 05:58:22;;;;;;;8.90;6.40;;;19.10;99.90;;;;;;5051678;28;20510;-75
2023/09/18 06:00:49;;;;;;;10.07;7.27;;;19.10;99.90;;;;;;5043144;28;20868;-75
2023/09/18 06:03:18;;;;;;;14.17;7.30;;;19.10;99.90;;;;;;5052289;28;20472;-74
2023/09/18 06:05:45;;;;;;;12.67;6.47;;;19.10;99.90;;;;;;5051871;28;20549;-74
2023/09/18 06:08:12;;;;;;;12.43;6.57;;;19.10;99.90;;;;;;5046602;28;20460;-75
2023/09/18 06:10:38;;;;;;;11.93;6.60;;;19.10;99.90;;;;;;5052277;28;20487;-74
2023/09/18 06:13:05;;;;;;;12.50;6.53;;;19.20;99.90;;;;;;5052299;28;20468;-74
2023/09/18 06:15:34;;;;;;;12.33;7.80;;;19.20;99.90;;;;;;5052642;28;20452;-74
2023/09/18 06:18:00;;;;;;;15.30;7.17;;;19.10;99.90;;;;;;5051887;28;20530;-74
2023/09/18 06:20:27;;;;;;;8.73;6.83;;;19.10;99.90;;;;;;5052113;28;20448;-74
2023/09/18 06:22:54;;;;;;;16.43;6.93;;;19.10;99.90;;;;;;5052903;28;20542;-74
2023/09/18 06:25:20;;;;;;;14.70;6.87;;;19.10;99.90;;;;;;5052984;28;20469;-74
2023/09/18 06:27:47;;;;;;;18.60;7.70;;;19.30;99.90;;;;;;5052708;28;20451;-74
2023/09/18 06:30:14;;;;;;;11.00;6.50;;;19.20;99.90;;;;;;5052493;28;20488;-74
2023/09/18 06:32:42;;;;;;;11.33;6.70;;;19.20;99.90;;;;;;5050497;28;20970;-74
2023/09/18 06:35:09;;;;;;;10.43;6.73;;;19.20;99.90;;;;;;5055035;28;20448;-74
2023/09/18 06:37:36;;;;;;;12.67;7.23;;;19.20;99.90;;;;;;5052089;28;20460;-74
2023/09/18 06:40:03;;;;;;;12.13;6.53;;;19.20;99.90;;;;;;5047296;28;20453;-74
2023/09/18 06:42:30;;;;;;;20.43;7.10;;;19.20;99.90;;;;;;5058327;28;20491;-74
2023/09/18 06:44:57;;;;;;;11.97;6.53;;;19.20;99.90;;;;;;5051006;28;20502;-74
2023/09/18 06:47:24;;;;;;;16.87;7.00;;;19.10;99.90;;;;;;5051421;28;20494;-74
2023/09/18 06:49:52;;;;;;;15.23;6.47;;;19.20;99.90;;;;;;5051446;28;20480;-74
2023/09/18 06:52:19;;;;;;;12.13;7.37;;;19.10;99.90;;;;;;5051253;28;20447;-74
2023/09/18 06:54:46;;;;;;;10.10;7.23;;;19.10;99.90;;;;;;5051358;28;20503;-74
2023/09/18 06:57:12;;;;;;;11.47;7.63;;;19.00;99.90;;;;;;5056634;28;20456;-75
2023/09/18 06:59:39;;;;;;;21.90;7.80;;;19.00;99.90;;;;;;5051283;28;20905;-73
2023/09/18 07:02:06;;;;;;;17.63;7.90;;;19.00;99.90;;;;;;5051763;28;20476;-74
2023/09/18 07:04:33;;;;;;;16.77;7.93;;;18.90;99.90;;;;;;5051423;28;20974;-74
2023/09/18 07:07:01;;;;;;;20.40;6.90;;;18.80;99.90;;;;;;5050816;28;20526;-74
2023/09/18 07:09:27;;;;;;;12.80;7.37;;;18.90;99.90;;;;;;5051321;28;20453;-74
2023/09/18 07:11:54;;;;;;;20.67;8.67;;;18.90;99.90;;;;;;5056388;28;20514;-75
2023/09/18 07:14:21;;;;;;;13.77;7.60;;;18.90;99.90;;;;;;5051091;28;20944;-74
2023/09/18 07:16:48;;;;;;;18.67;8.07;;;18.90;99.90;;;;;;5051028;28;20444;-74
2023/09/18 07:19:16;;;;;;;13.30;7.30;;;18.90;99.90;;;;;;5049408;28;20444;-74
2023/09/18 07:21:44;;;;;;;15.73;9.00;;;19.00;99.90;;;;;;5050569;28;20505;-74
2023/09/18 07:24:16;;;;;;;11.00;7.27;;;19.00;99.90;;;;;;5050597;28;20452;-74
2023/09/18 07:26:44;;;;;;;12.73;7.30;;;19.10;99.90;;;;;;5054725;28;20957;-74
2023/09/18 07:29:11;;;;;;;19.27;7.17;;;19.10;99.90;;;;;;5054193;28;20440;-74
2023/09/18 07:31:38;;;;;;;12.47;6.67;;;19.20;99.90;;;;;;5055748;28;20499;-74
2023/09/18 07:34:05;;;;;;;12.13;5.43;;;19.30;99.90;;;;;;5051673;28;20514;-75
2023/09/18 07:36:31;;;;;;;18.97;5.87;;;19.40;99.90;;;;;;5051422;28;20868;-77
2023/09/18 07:38:58;;;;;;;12.80;5.37;;;19.40;99.90;;;;;;5061391;28;20586;-75
2023/09/18 07:41:26;;;;;;;13.57;4.43;;;19.50;99.90;;;;;;5053605;28;20460;-74
2023/09/18 07:43:53;;;;;;;17.57;4.20;;;19.70;99.90;;;;;;5052021;28;20501;-73
2023/09/18 07:46:19;;;;;;;17.40;4.77;;;19.80;99.90;;;;;;5059307;28;20466;-74
2023/09/18 07:48:46;;;;;;;25.77;5.43;;;19.90;99.90;;;;;;5052842;28;20444;-75
2023/09/18 07:51:13;;;;;;;15.60;5.03;;;19.90;99.90;;;;;;5051380;28;20898;-74
2023/09/18 07:53:40;;;;;;;14.37;5.47;;;20.00;99.90;;;;;;5052688;28;20453;-74
2023/09/18 07:56:07;;;;;;;12.73;5.60;;;20.00;99.90;;;;;;5054179;28;20453;-74
2023/09/18 07:58:38;;;;;;;17.10;5.10;;;20.00;99.90;;;;;;5052925;28;20868;-73
2023/09/18 08:01:05;;;;;;;17.13;5.00;;;20.00;99.90;;;;;;5052065;28;20464;-74
2023/09/18 08:03:32;;;;;;;16.33;4.97;;;20.10;99.90;;;;;;5051395;28;20448;-73
2023/09/18 08:05:59;;;;;;;12.00;4.70;;;20.10;99.90;;;;;;5057304;28;20452;-74
2023/09/18 08:08:26;;;;;;;13.83;4.50;;;20.20;99.90;;;;;;5050983;28;20456;-74
2023/09/18 08:10:53;;;;;;;12.50;3.63;;;20.20;99.90;;;;;;5054009;28;21008;-74
2023/09/18 08:13:20;;;;;;;11.23;4.40;;;20.30;99.90;;;;;;5055156;28;20469;-73
2023/09/18 08:15:48;;;;;;;17.63;4.10;;;20.30;99.90;;;;;;5052386;28;20923;-73
2023/09/18 08:18:15;;;;;;;12.57;4.50;;;20.40;99.90;;;;;;5048811;28;20448;-75
2023/09/18 08:20:43;;;;;;;10.70;3.87;;;20.50;99.90;;;;;;5050847;28;20452;-73
2023/09/18 08:23:10;;;;;;;10.00;3.80;;;20.60;99.90;;;;;;5050552;28;20464;-73
2023/09/18 08:25:37;;;;;;;9.10;3.80;;;20.70;99.90;;;;;;5053448;28;20551;-73
2023/09/18 08:28:04;;;;;;;15.37;4.13;;;20.70;99.90;;;;;;5050298;28;20440;-73
2023/09/18 08:30:31;;;;;;;8.23;3.70;;;20.80;99.90;;;;;;5054392;28;20475;-72
2023/09/18 08:32:59;;;;;;;7.37;3.60;;;20.90;99.90;;;;;;5053354;28;20480;-72
2023/09/18 08:35:29;;;;;;;16.40;3.83;;;20.90;99.90;;;;;;5050158;28;20870;-73
2023/09/18 08:37:56;;;;;;;12.73;4.33;;;21.00;99.90;;;;;;5049719;28;20513;-72
2023/09/18 08:40:25;;;;;;;22.87;3.83;;;21.10;99.90;;;;;;5049830;28;20775;-75
2023/09/18 08:42:56;;;;;;;9.80;3.70;;;21.20;99.90;;;;;;5049384;28;20484;-73
2023/09/18 08:45:26;;;;;;;17.30;4.20;;;21.30;99.90;;;;;;5051025;28;20549;-73
2023/09/18 08:47:55;;;;;;;11.53;3.73;;;21.40;99.90;;;;;;5049179;28;20982;-73
2023/09/18 08:50:25;;;;;;;9.87;3.90;;;21.40;99.90;;;;;;5051988;28;20492;-75
2023/09/18 08:52:52;;;;;;;13.30;4.07;;;21.50;99.90;;;;;;5072289;28;20467;-74
2023/09/18 08:55:20;;;;;;;13.03;3.90;;;21.70;99.90;;;;;;5072426;28;20487;-73
2023/09/18 08:57:48;;;;;;;20.43;3.70;;;21.80;99.90;;;;;;5072540;28;20460;-74
2023/09/18 09:00:17;;;;;;;9.80;4.30;;;22.00;99.90;;;;;;5054543;28;20455;-73
2023/09/18 09:02:44;;;;;;;23.93;4.10;;;22.10;99.90;;;;;;5050363;28;20571;-73
2023/09/18 09:05:12;;;;;;;14.23;3.60;;;22.10;99.90;;;;;;5051294;28;20449;-74
2023/09/18 09:07:40;;;;;;;14.73;4.43;;;22.00;99.90;;;;;;5050634;28;20455;-74
2023/09/18 09:10:07;;;;;;;17.37;4.37;;;21.90;99.90;;;;;;5053528;28;20495;-74
2023/09/18 09:12:53;;;;;;;15.03;3.77;;;21.80;99.90;;;;;;5055118;28;20484;-74
2023/09/18 09:15:20;;;;;;;10.00;3.70;;;21.80;99.90;;;;;;5052263;28;20487;-74
2023/09/18 09:17:47;;;;;;;11.47;3.90;;;21.70;99.90;;;;;;5053454;28;20479;-74
2023/09/18 09:20:18;;;;;;;14.70;4.40;;;21.70;99.90;;;;;;5052512;28;20522;-75
2023/09/18 09:22:46;;;;;;;11.80;4.27;;;21.70;99.90;;;;;;5050925;28;20479;-74
2023/09/18 09:25:25;;;;;;;18.13;4.10;;;21.70;99.90;;;;;;5051330;28;20460;-74
2023/09/18 09:27:53;;;;;;;8.07;2.93;;;21.50;99.90;;;;;;5056538;28;20554;-73
2023/09/18 09:30:21;;;;;;;16.23;3.77;;;21.50;99.90;;;;;;5049139;28;20485;-73
2023/09/18 09:32:50;;;;;;;21.30;4.80;;;21.50;99.90;;;;;;5056132;28;20482;-73
2023/09/18 09:35:21;;;;;;;15.73;3.53;;;21.40;99.90;;;;;;5053677;28;21030;-73
2023/09/18 09:37:51;;;;;;;19.70;3.20;;;21.40;99.90;;;;;;5073301;28;20451;-74
2023/09/18 09:40:21;;;;;;;17.37;3.93;;;21.30;99.90;;;;;;5060131;28;20457;-74
2023/09/18 09:42:48;;;;;;;15.50;3.80;;;21.40;99.90;;;;;;5053579;28;20465;-73
2023/09/18 09:45:16;;;;;;;13.33;3.50;;;21.30;99.90;;;;;;5053967;28;20926;-74
2023/09/18 09:47:43;;;;;;;9.87;3.10;;;21.40;99.90;;;;;;5052150;28;20945;-74
2023/09/18 09:50:13;;;;;;;14.70;2.97;;;21.40;99.90;;;;;;5053258;28;20546;-73
2023/09/18 09:52:44;;;;;;;13.60;2.97;;;21.40;99.90;;;;;;5051674;28;20488;-73
2023/09/18 09:55:25;;;;;;;7.10;2.93;;;21.50;99.90;;;;;;5052481;28;20923;-73
2023/09/18 09:57:53;;;;;;;10.27;3.20;;;21.50;99.90;;;;;;5052811;28;20502;-73
2023/09/18 10:00:30;;;;;;;7.33;2.90;;;21.60;99.90;;;;;;5051104;28;20448;-73
2023/09/18 10:03:02;;;;;;;9.00;3.37;;;21.60;99.90;;;;;;5049701;28;20468;-72
2023/09/18 10:05:32;;;;;;;9.47;3.90;;;21.50;99.90;;;;;;5053513;28;20476;-73
2023/09/18 10:08:02;;;;;;;5.53;3.07;;;21.50;99.90;;;;;;5049527;28;20543;-73
2023/09/18 10:10:33;;;;;;;5.37;2.90;;;21.40;99.90;;;;;;5052374;28;20862;-73
2023/09/18 10:13:04;;;;;;;6.57;2.77;;;21.40;99.90;;;;;;5049239;28;20476;-73
2023/09/18 10:15:38;;;;;;;8.60;2.77;;;21.30;99.90;;;;;;5052894;28;21005;-73
2023/09/18 10:18:08;;;;;;;6.43;2.70;;;21.20;99.90;;;;;;5052553;28;20445;-73
2023/09/18 10:20:42;;;;;;;10.13;3.30;;;21.20;99.90;;;;;;5053190;28;20539;-73
2023/09/18 10:23:17;;;;;;;7.37;3.30;;;21.20;99.90;;;;;;5053321;28;20559;-73
2023/09/18 10:25:46;;;;;;;8.93;2.90;;;21.20;99.90;;;;;;5052675;28;20456;-73
2023/09/18 10:28:15;;;;;;;4.13;3.00;;;21.30;99.90;;;;;;5052302;28;20503;-73
2023/09/18 10:30:43;;;;;;;4.97;2.80;;;21.40;99.90;;;;;;5052112;28;20445;-73
2023/09/18 10:33:10;;;;;;;4.53;2.50;;;21.60;99.90;;;;;;5051941;28;20533;-73
2023/09/18 10:35:38;;;;;;;11.50;2.70;;;21.50;99.90;;;;;;5052000;28;20926;-73
2023/09/18 10:38:07;;;;;;;5.53;2.47;;;21.50;99.90;;;;;;5051956;28;20510;-73
2023/09/18 10:40:35;;;;;;;8.03;2.90;;;21.50;99.90;;;;;;5052079;28;20453;-73
2023/09/18 10:43:09;;;;;;;6.90;2.90;;;21.50;99.90;;;;;;5051964;28;20469;-73
2023/09/18 10:45:36;;;;;;;9.27;2.53;;;21.50;99.90;;;;;;5051856;28;20444;-73
2023/09/18 10:48:04;;;;;;;4.27;2.80;;;21.50;99.90;;;;;;5051650;28;20526;-73
2023/09/18 10:50:31;;;;;;;3.63;2.70;;;21.60;99.90;;;;;;5055219;28;20502;-73
2023/09/18 10:52:58;;;;;;;5.50;2.63;;;21.50;99.90;;;;;;5048274;28;20492;-73
2023/09/18 10:55:26;;;;;;;4.03;2.60;;;21.50;99.90;;;;;;5051911;28;20535;-73
2023/09/18 10:57:54;;;;;;;7.80;2.63;;;21.50;99.90;;;;;;5051557;28;20448;-73
2023/09/18 11:00:25;;;;;;;5.87;3.13;;;21.50;99.90;;;;;;5051898;28;20464;-73
2023/09/18 11:02:52;;;;;;;5.70;2.83;;;21.50;99.90;;;;;;5051272;28;20468;-73
2023/09/18 11:05:30;;;;;;;4.67;2.67;;;21.50;99.90;;;;;;5051469;28;20950;-73
2023/09/18 11:08:27;;;;;;;7.47;2.80;;;21.60;99.90;;;;;;5051726;28;20971;-73
2023/09/18 11:11:04;;;;;;;6.40;2.53;;;21.60;99.90;;;;;;5050292;28;20445;-73
2023/09/18 11:13:37;;;;;;;5.27;2.30;;;21.70;99.90;;;;;;5051399;28;20484;-73
2023/09/18 11:16:18;;;;;;;2.70;2.27;;;21.70;99.90;;;;;;5048083;28;20440;-73
2023/09/18 11:18:53;;;;;;;3.93;2.17;;;21.80;99.90;;;;;;5047704;28;20444;-72
2023/09/18 11:21:25;;;;;;;5.43;2.47;;;21.90;99.90;;;;;;5048883;28;20460;-73
2023/09/18 11:24:00;;;;;;;3.77;2.10;;;21.90;99.90;;;;;;5047014;28;20506;-73
2023/09/18 11:26:30;;;;;;;2.73;2.10;;;21.90;99.90;;;;;;5049809;28;20887;-72
2023/09/18 11:28:59;;;;;;;4.43;2.10;;;21.90;99.90;;;;;;5046400;28;20499;-73
2023/09/18 11:31:47;;;;;;;3.23;2.00;;;21.80;99.90;;;;;;5051423;28;20574;-73
2023/09/18 11:34:15;;;;;;;2.20;1.93;;;21.90;99.90;;;;;;5048601;28;20480;-73
2023/09/18 11:36:42;;;;;;;4.10;2.40;;;21.90;99.90;;;;;;5048715;28;20453;-73
2023/09/18 11:39:11;;;;;;;5.37;2.33;;;21.90;99.90;;;;;;5055015;28;20459;-73
2023/09/18 11:41:38;;;;;;;8.03;2.60;;;21.90;99.90;;;;;;5047507;28;20482;-73
2023/09/18 11:44:34;;;;;;;3.97;2.67;;;22.00;99.90;;;;;;5050492;28;20959;-73
2023/09/18 11:47:04;;;;;;;5.73;2.43;;;22.10;99.90;;;;;;5046626;28;21008;-72
2023/09/18 11:49:32;;;;;;;4.13;2.50;;;22.00;99.90;;;;;;5045978;28;20506;-74
2023/09/18 11:52:00;;;;;;;3.03;2.73;;;22.10;99.90;;;;;;5053638;28;20488;-73
2023/09/18 11:54:28;;;;;;;4.73;2.90;;;22.10;99.90;;;;;;5048641;28;20934;-73
2023/09/18 11:56:54;;;;;;;6.90;2.73;;;22.00;99.90;;;;;;5045758;28;20457;-74
2023/09/18 11:59:36;;;;;;;5.50;2.47;;;22.00;99.90;;;;;;5047241;28;20468;-74
2023/09/18 12:02:05;;;;;;;5.33;2.30;;;22.00;99.90;;;;;;5041647;28;20875;-74
2023/09/18 12:04:32;;;;;;;3.10;2.73;;;22.10;99.90;;;;;;5044618;28;20448;-73
2023/09/18 12:07:00;;;;;;;3.60;2.63;;;22.00;99.90;;;;;;5045675;28;20453;-74
2023/09/18 12:09:27;;;;;;;11.77;3.10;;;22.10;99.90;;;;;;5046363;28;20445;-73
2023/09/18 12:11:55;;;;;;;6.70;2.97;;;22.10;99.90;;;;;;5047248;28;20487;-74
2023/09/18 12:14:22;;;;;;;4.30;2.40;;;22.10;99.90;;;;;;5047244;28;20531;-74
2023/09/18 12:16:50;;;;;;;4.67;3.00;;;22.10;99.90;;;;;;5049304;28;20503;-74
2023/09/18 12:19:19;;;;;;;3.70;2.87;;;22.10;99.90;;;;;;5045134;28;20448;-75
2023/09/18 12:21:48;;;;;;;3.03;2.73;;;22.30;99.90;;;;;;5045058;28;20468;-73
2023/09/18 12:24:15;;;;;;;5.40;3.30;;;22.10;99.90;;;;;;5048271;28;20542;-74
2023/09/18 12:26:42;;;;;;;6.50;3.43;;;22.10;99.90;;;;;;5047580;28;20444;-74
2023/09/18 12:29:10;;;;;;;7.50;3.40;;;22.20;99.90;;;;;;5044627;28;20444;-73
2023/09/18 12:31:37;;;;;;;4.73;3.30;;;22.10;99.90;;;;;;5051529;28;20499;-74
2023/09/18 12:34:07;;;;;;;7.10;3.70;;;22.30;99.90;;;;;;5047931;28;20541;-74
2023/09/18 12:36:35;;;;;;;6.80;3.60;;;22.30;99.90;;;;;;5044343;28;20506;-74
2023/09/18 12:39:02;;;;;;;5.00;3.00;;;22.40;99.90;;;;;;5041136;28;20499;-74
2023/09/18 12:41:30;;;;;;;6.50;3.40;;;22.50;99.90;;;;;;5048919;28;20478;-74
2023/09/18 12:43:57;;;;;;;3.50;3.20;;;22.40;99.90;;;;;;5045111;28;20448;-74
2023/09/18 12:46:24;;;;;;;5.43;3.80;;;22.70;99.90;;;;;;5043700;28;20596;-73